Philmont, New York
Current Conditions -  °F | °C
As of 5:25 AM on Friday 31 Oct 2014 (Local Time) from KPSF Reporting Station
Haze Haze  
Wind Chill: 29°   Ceiling: 100
Heat Index: 29°   Visibility: 1.2mi
Dew Point: 28°   Wind: 0mph
Humidity: 96%   Direction: NA
Pressure: 30"   Gusts: NA
Location:  42.25°N, 73.65°W
Report Text: KPSF 310925Z AUTO 00000KT 1 1/4SM BR BKN001 M02/M02 A3000 RMK AO2 T10171022
Loading
Personal Weather Stations






























Interactive Weather Map
Tropical Storm Tracking
New forecast layout! Learn more

10-Day Weather Forecast

Advertisements
Track Severe Weather on mobile